Time;durP1;ratioP1;P1;durP2;ratioP2;P2;SDS_P1;SDS_P2;PMS_P1;PMS_P2;Temp;Humidity;BMP_temperature;BMP_pressure;BME280_temperature;BME280_humidity;BME280_pressure;Samples;Min_cycle;Max_cycle;Signal;HPM_P1;HPM_P2
2022/03/06 00:01:36;;;;;;;14.52;9.98;;;1.60;99.90;;;;;;5024524;28;20052;-59
2022/03/06 00:04:02;;;;;;;13.98;9.77;;;1.70;99.90;;;;;;5029533;28;20043;-59
2022/03/06 00:06:28;;;;;;;10.82;9.30;;;1.60;99.90;;;;;;5047914;28;20116;-59
2022/03/06 00:08:53;;;;;;;15.02;10.27;;;1.70;99.90;;;;;;5046107;28;20688;-59
2022/03/06 00:11:19;;;;;;;11.18;9.45;;;1.70;99.90;;;;;;5022748;28;20037;-59
2022/03/06 00:13:44;;;;;;;14.18;9.77;;;1.70;99.90;;;;;;5037045;28;20051;-58
2022/03/06 00:16:10;;;;;;;13.02;10.18;;;1.70;99.90;;;;;;5022034;28;20040;-59
2022/03/06 00:18:37;;;;;;;15.70;11.00;;;1.80;99.90;;;;;;5020511;28;21407;-59
2022/03/06 00:21:03;;;;;;;13.25;8.82;;;1.80;99.90;;;;;;5021897;28;20052;-59
2022/03/06 00:23:29;;;;;;;13.35;7.82;;;1.90;99.90;;;;;;5019011;28;20054;-59
2022/03/06 00:25:54;;;;;;;13.20;9.30;;;1.90;99.90;;;;;;5038615;28;20896;-58
2022/03/06 00:28:20;;;;;;;12.32;8.93;;;1.90;99.90;;;;;;5041861;28;20044;-59
2022/03/06 00:30:47;;;;;;;10.73;8.45;;;1.90;99.90;;;;;;5042897;28;20071;-58
2022/03/06 00:33:13;;;;;;;12.23;8.80;;;2.00;99.90;;;;;;5043724;28;20049;-58
2022/03/06 00:35:39;;;;;;;14.07;8.75;;;2.00;99.90;;;;;;5050070;28;20538;-58
2022/03/06 00:38:04;;;;;;;15.18;9.70;;;2.10;99.90;;;;;;5042128;28;20155;-58
2022/03/06 00:40:30;;;;;;;14.18;8.23;;;2.00;99.90;;;;;;5041734;28;20057;-59
2022/03/06 00:42:56;;;;;;;10.95;8.07;;;2.10;99.90;;;;;;5044482;28;20083;-58
2022/03/06 00:45:21;;;;;;;14.63;8.50;;;2.10;99.90;;;;;;5018209;28;20056;-59
2022/03/06 00:47:47;;;;;;;18.00;9.05;;;2.10;99.90;;;;;;5041646;28;20051;-59
2022/03/06 00:50:13;;;;;;;11.43;9.05;;;2.10;99.90;;;;;;5049318;28;20115;-59
2022/03/06 00:52:39;;;;;;;14.85;9.38;;;2.10;99.90;;;;;;5044228;28;20036;-59
2022/03/06 00:55:06;;;;;;;10.13;7.85;;;2.10;99.90;;;;;;5041481;28;20053;-59
2022/03/06 00:57:32;;;;;;;10.82;7.55;;;2.10;99.90;;;;;;5045231;28;20147;-59
2022/03/06 00:59:57;;;;;;;10.48;8.45;;;2.10;99.90;;;;;;5025205;28;20045;-59
2022/03/06 01:02:23;;;;;;;11.27;7.85;;;2.10;99.90;;;;;;5033939;28;20041;-59
2022/03/06 01:04:48;;;;;;;11.80;8.60;;;2.10;99.90;;;;;;5026036;28;20557;-59
2022/03/06 01:07:14;;;;;;;12.82;7.63;;;2.10;99.90;;;;;;5024500;28;20056;-59
2022/03/06 01:09:40;;;;;;;10.70;7.35;;;2.10;99.90;;;;;;5019134;28;20053;-60
2022/03/06 01:12:06;;;;;;;12.88;7.82;;;2.10;99.90;;;;;;5040882;28;20128;-59
2022/03/06 01:14:32;;;;;;;10.55;8.55;;;2.10;99.90;;;;;;5046601;28;20041;-59
2022/03/06 01:16:57;;;;;;;9.23;7.60;;;2.10;99.90;;;;;;5019445;28;20041;-59
2022/03/06 01:19:23;;;;;;;11.45;9.00;;;2.10;99.90;;;;;;5048757;28;20049;-59
2022/03/06 01:21:48;;;;;;;9.63;7.47;;;2.10;99.90;;;;;;5037997;28;20044;-59
2022/03/06 01:24:14;;;;;;;10.60;8.02;;;2.00;99.90;;;;;;5048726;28;20052;-59
2022/03/06 01:26:39;;;;;;;10.10;7.57;;;2.10;99.90;;;;;;5038726;28;20055;-59
2022/03/06 01:29:05;;;;;;;12.27;7.50;;;2.00;99.90;;;;;;5044002;28;20048;-59
2022/03/06 01:31:31;;;;;;;9.40;7.63;;;2.00;99.90;;;;;;5043544;28;20052;-59
2022/03/06 01:33:57;;;;;;;10.23;7.55;;;2.10;99.90;;;;;;5040834;28;20054;-59
2022/03/06 01:36:22;;;;;;;9.25;7.18;;;2.10;99.90;;;;;;5048549;28;20053;-59
2022/03/06 01:38:48;;;;;;;14.10;8.02;;;2.10;99.90;;;;;;5027046;28;20036;-59
2022/03/06 01:41:13;;;;;;;10.73;7.15;;;2.10;99.90;;;;;;5037106;28;20049;-59
2022/03/06 01:43:39;;;;;;;9.55;7.30;;;2.10;99.90;;;;;;5045036;28;20041;-59
2022/03/06 01:46:05;;;;;;;8.30;6.95;;;2.10;99.90;;;;;;5044047;28;20245;-59
2022/03/06 01:48:30;;;;;;;10.98;7.90;;;2.10;99.90;;;;;;5043672;28;20049;-59
2022/03/06 01:50:56;;;;;;;9.90;7.57;;;2.10;99.90;;;;;;5035661;28;20106;-59
2022/03/06 01:53:21;;;;;;;11.20;6.78;;;2.10;99.90;;;;;;5039275;28;20073;-58
2022/03/06 01:55:47;;;;;;;8.30;7.00;;;2.10;99.90;;;;;;5035342;28;20080;-58
2022/03/06 01:58:14;;;;;;;15.95;7.45;;;2.10;99.90;;;;;;5027185;28;20045;-59
2022/03/06 02:00:49;;;;;;;10.13;7.60;;;2.00;99.90;;;;;;5033475;28;20056;-60
2022/03/06 02:03:16;;;;;;;23.73;9.25;;;2.10;99.90;;;;;;5055623;28;20048;-60
2022/03/06 02:05:43;;;;;;;12.35;7.38;;;2.10;99.90;;;;;;5041475;28;20052;-60
2022/03/06 02:08:08;;;;;;;12.88;6.60;;;2.10;99.90;;;;;;5055399;28;20048;-59
2022/03/06 02:10:35;;;;;;;9.75;6.80;;;2.10;99.90;;;;;;5050601;28;20051;-60
2022/03/06 02:13:00;;;;;;;13.15;7.55;;;2.10;99.90;;;;;;5057443;28;20059;-59
2022/03/06 02:15:26;;;;;;;9.43;7.20;;;2.10;99.90;;;;;;5058028;28;20052;-59
2022/03/06 02:17:52;;;;;;;9.52;6.65;;;2.10;99.90;;;;;;5057266;28;20055;-59
2022/03/06 02:20:20;;;;;;;8.77;7.90;;;2.30;99.90;;;;;;5057332;28;20135;-59
2022/03/06 02:22:51;;;;;;;9.07;7.00;;;2.10;99.90;;;;;;5057360;28;20483;-57
2022/03/06 02:25:21;;;;;;;9.27;6.30;;;2.10;99.90;;;;;;5057978;28;20055;-60
2022/03/06 02:27:48;;;;;;;9.63;7.05;;;2.10;99.90;;;;;;5056802;28;20442;-59
2022/03/06 02:30:16;;;;;;;11.43;7.95;;;2.10;99.90;;;;;;5057122;28;20048;-60
2022/03/06 02:32:45;;;;;;;9.15;7.03;;;2.10;99.90;;;;;;5057192;28;20067;-59
2022/03/06 02:35:11;;;;;;;12.18;7.40;;;2.10;99.90;;;;;;5056893;28;20052;-60
2022/03/06 02:37:36;;;;;;;7.53;6.72;;;2.10;99.90;;;;;;5057825;28;20047;-59
2022/03/06 02:40:05;;;;;;;9.18;6.82;;;1.20;99.90;;;;;;5039773;28;20079;-59
2022/03/06 02:42:34;;;;;;;9.23;7.20;;;2.10;99.90;;;;;;5039798;28;20059;-59
2022/03/06 02:45:05;;;;;;;8.45;6.82;;;2.20;99.90;;;;;;5057379;28;20055;-60
2022/03/06 02:47:31;;;;;;;8.32;6.93;;;2.20;99.90;;;;;;5049974;28;20445;-59
2022/03/06 02:49:56;;;;;;;9.48;7.18;;;2.20;99.90;;;;;;5039498;28;20612;-59
2022/03/06 02:52:22;;;;;;;10.98;8.32;;;2.20;99.90;;;;;;5057035;28;20052;-59
2022/03/06 02:54:48;;;;;;;7.50;6.65;;;2.10;99.90;;;;;;5039048;28;20052;-60
2022/03/06 02:57:14;;;;;;;8.45;7.20;;;2.10;99.90;;;;;;5057262;28;20059;-59
2022/03/06 02:59:40;;;;;;;8.63;7.18;;;2.10;99.90;;;;;;5039180;28;20048;-59
2022/03/06 03:02:06;;;;;;;8.85;7.57;;;2.10;99.90;;;;;;5056195;28;20052;-60
2022/03/06 03:04:33;;;;;;;7.85;6.22;;;2.10;99.90;;;;;;5056712;28;20040;-59
2022/03/06 03:06:59;;;;;;;7.80;5.85;;;2.10;99.90;;;;;;5056735;28;20045;-59
2022/03/06 03:09:25;;;;;;;10.52;5.88;;;2.00;99.90;;;;;;5056097;28;20158;-59
2022/03/06 03:11:52;;;;;;;9.32;5.93;;;2.00;99.90;;;;;;5051754;28;20155;-60
2022/03/06 03:14:18;;;;;;;7.88;5.25;;;2.00;99.90;;;;;;5053057;28;20040;-59
2022/03/06 03:16:44;;;;;;;6.07;4.70;;;2.00;99.90;;;;;;5038200;28;20178;-59
2022/03/06 03:19:10;;;;;;;7.32;5.22;;;2.00;99.90;;;;;;5055840;28;20050;-59
2022/03/06 03:21:36;;;;;;;5.63;5.00;;;1.90;99.90;;;;;;5056533;28;20087;-59
2022/03/06 03:24:02;;;;;;;7.03;4.70;;;1.90;99.90;;;;;;5038788;28;20147;-59
2022/03/06 03:26:28;;;;;;;4.22;3.80;;;1.80;99.90;;;;;;5035090;28;20044;-59
2022/03/06 03:28:53;;;;;;;7.40;4.50;;;1.80;99.90;;;;;;5053692;28;20072;-59
2022/03/06 03:31:19;;;;;;;5.18;4.60;;;1.80;99.90;;;;;;5055634;28;20092;-59
2022/03/06 03:33:45;;;;;;;7.65;4.28;;;1.80;99.90;;;;;;5056404;28;20233;-59
2022/03/06 03:36:12;;;;;;;7.10;4.15;;;1.80;99.90;;;;;;5056017;28;20670;-59
2022/03/06 03:38:39;;;;;;;6.85;4.57;;;1.80;99.90;;;;;;5056852;28;20043;-59
2022/03/06 03:41:05;;;;;;;7.57;4.63;;;1.80;99.90;;;;;;5038676;28;20234;-59
2022/03/06 03:43:31;;;;;;;6.18;4.57;;;1.70;99.90;;;;;;5047793;28;20052;-59
2022/03/06 03:45:59;;;;;;;5.28;4.30;;;1.70;99.90;;;;;;5050730;28;20044;-59
2022/03/06 03:48:27;;;;;;;7.43;4.95;;;1.70;99.90;;;;;;5038180;28;20694;-59
2022/03/06 03:50:53;;;;;;;8.75;4.57;;;1.70;99.90;;;;;;5055949;28;20048;-59
2022/03/06 03:53:20;;;;;;;6.25;4.80;;;1.60;99.90;;;;;;5056803;28;20072;-59
2022/03/06 03:55:46;;;;;;;6.75;4.47;;;1.60;99.90;;;;;;5056646;28;20048;-58
2022/03/06 03:58:12;;;;;;;5.05;4.10;;;1.60;99.90;;;;;;5055951;28;20855;-60
2022/03/06 04:00:37;;;;;;;7.95;4.72;;;1.60;99.90;;;;;;5057008;28;20056;-58
2022/03/06 04:03:03;;;;;;;8.63;5.20;;;1.50;99.90;;;;;;5055511;28;20419;-58
2022/03/06 04:05:29;;;;;;;5.43;4.45;;;1.50;99.90;;;;;;5037708;28;21076;-58
2022/03/06 04:07:55;;;;;;;8.13;4.50;;;1.50;99.90;;;;;;5055952;28;20055;-58
2022/03/06 04:10:20;;;;;;;8.63;5.50;;;1.50;99.90;;;;;;5055948;28;20127;-58
2022/03/06 04:12:46;;;;;;;5.15;4.65;;;1.50;99.90;;;;;;5055544;28;20036;-59
2022/03/06 04:15:11;;;;;;;5.15;4.65;;;1.40;99.90;;;;;;5056359;28;20048;-58
2022/03/06 04:17:37;;;;;;;4.85;3.90;;;1.50;99.90;;;;;;5038250;28;20052;-58
2022/03/06 04:20:04;;;;;;;6.32;4.68;;;1.40;99.90;;;;;;5055336;28;20056;-59
2022/03/06 04:22:30;;;;;;;6.28;4.28;;;1.80;99.90;;;;;;5055414;28;20048;-58
2022/03/06 04:24:55;;;;;;;8.73;5.35;;;1.40;99.90;;;;;;5056486;28;20059;-58
2022/03/06 04:27:21;;;;;;;7.18;4.88;;;1.40;99.90;;;;;;5055997;28;20552;-59
2022/03/06 04:29:46;;;;;;;5.10;4.43;;;1.40;99.90;;;;;;5044642;28;20041;-59
2022/03/06 04:32:12;;;;;;;5.22;3.97;;;1.40;99.90;;;;;;5039682;28;20057;-59
2022/03/06 04:34:38;;;;;;;6.28;4.32;;;1.30;99.90;;;;;;5021397;28;20471;-59
2022/03/06 04:37:04;;;;;;;7.55;5.55;;;1.30;99.90;;;;;;5022231;28;20083;-59
2022/03/06 04:39:30;;;;;;;5.85;4.47;;;1.30;99.90;;;;;;5044849;28;20139;-59
2022/03/06 04:41:56;;;;;;;7.55;4.63;;;1.30;99.90;;;;;;5024395;28;20053;-59
2022/03/06 04:44:21;;;;;;;7.35;3.92;;;1.30;99.90;;;;;;5018621;28;20044;-58
2022/03/06 04:46:47;;;;;;;8.23;4.47;;;1.30;99.90;;;;;;5014990;28;20044;-59
2022/03/06 04:49:13;;;;;;;6.32;4.75;;;1.30;99.90;;;;;;5038973;28;20041;-60
2022/03/06 04:51:38;;;;;;;6.60;4.45;;;1.30;99.90;;;;;;5019769;28;20057;-59
2022/03/06 04:54:05;;;;;;;7.95;5.22;;;1.20;99.90;;;;;;5016584;28;20047;-60
2022/03/06 04:56:30;;;;;;;9.82;5.00;;;1.20;99.90;;;;;;5039513;28;20325;-59
2022/03/06 04:58:56;;;;;;;7.63;4.38;;;1.20;99.90;;;;;;5043355;28;20526;-59
2022/03/06 05:01:21;;;;;;;5.00;4.50;;;1.20;99.90;;;;;;5035917;28;20753;-58
2022/03/06 05:03:50;;;;;;;7.40;4.03;;;1.20;99.90;;;;;;5041408;28;20693;-60
2022/03/06 05:06:16;;;;;;;6.88;4.72;;;1.10;99.90;;;;;;5033675;28;20051;-59
2022/03/06 05:08:41;;;;;;;8.27;5.20;;;1.10;99.90;;;;;;5017865;28;20037;-59
2022/03/06 05:11:07;;;;;;;5.95;4.10;;;1.10;99.90;;;;;;5038605;28;20107;-59
2022/03/06 05:13:33;;;;;;;8.27;4.03;;;1.10;99.90;;;;;;5044320;28;20552;-60
2022/03/06 05:15:58;;;;;;;6.15;4.15;;;1.10;99.90;;;;;;5036181;28;20838;-59
2022/03/06 05:18:24;;;;;;;5.25;4.00;;;1.10;99.90;;;;;;5038874;28;20041;-59
2022/03/06 05:20:53;;;;;;;7.10;4.07;;;1.20;99.90;;;;;;5033108;28;20080;-58
2022/03/06 05:23:19;;;;;;;5.10;3.55;;;1.00;99.90;;;;;;5037669;28;20412;-58
2022/03/06 05:25:45;;;;;;;3.53;3.22;;;1.00;99.90;;;;;;5041267;28;20077;-58
2022/03/06 05:28:11;;;;;;;5.97;4.82;;;1.00;99.90;;;;;;5015565;28;20049;-58
2022/03/06 05:30:37;;;;;;;6.55;4.47;;;1.00;99.90;;;;;;5036485;28;20041;-58
2022/03/06 05:33:03;;;;;;;8.93;3.92;;;1.00;99.90;;;;;;5034926;28;20060;-59
2022/03/06 05:35:28;;;;;;;7.53;4.07;;;0.90;99.90;;;;;;5038078;28;20061;-57
2022/03/06 05:37:54;;;;;;;5.25;3.22;;;0.90;99.90;;;;;;5038408;28;20110;-57
2022/03/06 05:40:20;;;;;;;5.28;3.45;;;0.90;99.90;;;;;;5038922;28;20092;-57
2022/03/06 05:42:52;;;;;;;4.88;4.22;;;0.90;99.90;;;;;;5038075;28;20056;-57
2022/03/06 05:45:17;;;;;;;7.28;4.22;;;0.80;99.90;;;;;;5039081;28;20045;-57
2022/03/06 05:47:43;;;;;;;6.47;4.20;;;0.80;99.90;;;;;;5039017;28;20040;-57
2022/03/06 05:50:10;;;;;;;5.68;3.95;;;0.80;99.90;;;;;;5020593;28;20813;-59
2022/03/06 05:52:36;;;;;;;5.20;3.80;;;0.80;99.90;;;;;;5020517;28;20045;-59
2022/03/06 05:55:03;;;;;;;4.80;3.33;;;0.80;99.90;;;;;;5054390;28;20060;-59
2022/03/06 05:57:29;;;;;;;6.55;3.40;;;0.80;99.90;;;;;;5057948;28;20040;-59
2022/03/06 05:59:54;;;;;;;6.50;4.07;;;0.80;99.90;;;;;;5057998;28;20051;-59
2022/03/06 06:02:21;;;;;;;5.35;3.35;;;0.80;99.90;;;;;;5058391;28;20044;-59
2022/03/06 06:04:47;;;;;;;5.63;3.78;;;0.80;99.90;;;;;;5058379;28;20052;-60
2022/03/06 06:07:13;;;;;;;4.95;3.67;;;0.80;99.90;;;;;;5055496;28;20610;-59
2022/03/06 06:09:39;;;;;;;9.25;3.85;;;0.80;99.90;;;;;;5038077;28;20056;-59
2022/03/06 06:12:05;;;;;;;3.67;3.38;;;0.90;99.90;;;;;;5038045;28;20851;-59
2022/03/06 06:14:31;;;;;;;5.88;3.80;;;0.90;99.90;;;;;;5055669;28;20222;-59
2022/03/06 06:16:57;;;;;;;4.82;3.70;;;0.90;99.90;;;;;;5056206;28;20052;-59
2022/03/06 06:19:22;;;;;;;4.88;3.38;;;0.90;99.90;;;;;;5055130;28;20079;-59
2022/03/06 06:21:48;;;;;;;3.88;3.03;;;0.90;99.90;;;;;;5055782;28;20044;-59
2022/03/06 06:24:15;;;;;;;4.50;3.25;;;0.90;99.90;;;;;;5056313;28;20044;-59
2022/03/06 06:26:42;;;;;;;6.68;3.30;;;0.90;99.90;;;;;;5037762;28;20047;-59
2022/03/06 06:29:08;;;;;;;4.40;3.97;;;0.90;99.90;;;;;;5056041;28;20052;-59
2022/03/06 06:31:34;;;;;;;6.30;3.10;;;0.90;99.90;;;;;;5055212;28;20060;-60
2022/03/06 06:34:00;;;;;;;4.95;3.65;;;0.90;99.90;;;;;;5055127;28;20074;-57
2022/03/06 06:36:26;;;;;;;5.43;2.72;;;1.00;99.90;;;;;;5055291;28;20888;-58
2022/03/06 06:38:52;;;;;;;5.60;3.67;;;2.10;99.90;;;;;;5055595;28;20152;-58
2022/03/06 06:41:18;;;;;;;3.42;2.92;;;1.00;99.90;;;;;;5054907;28;20556;-57
2022/03/06 06:43:43;;;;;;;6.65;3.45;;;1.00;99.90;;;;;;5054912;28;20063;-58
2022/03/06 06:46:10;;;;;;;3.08;2.75;;;1.00;99.90;;;;;;5053001;28;20128;-58
2022/03/06 06:48:35;;;;;;;5.28;2.90;;;1.00;99.90;;;;;;5055191;28;20612;-58
2022/03/06 06:51:01;;;;;;;3.88;2.55;;;1.00;99.90;;;;;;5054844;28;20040;-58
2022/03/06 06:53:27;;;;;;;3.47;2.90;;;1.00;99.90;;;;;;5036292;28;20059;-57
2022/03/06 06:55:52;;;;;;;4.93;2.92;;;1.00;99.90;;;;;;5055336;28;20052;-58
2022/03/06 06:58:18;;;;;;;3.17;2.83;;;1.00;99.90;;;;;;5054153;28;20120;-58
2022/03/06 07:00:44;;;;;;;4.15;3.33;;;1.10;99.90;;;;;;5054703;28;20110;-58
2022/03/06 07:03:09;;;;;;;3.83;3.42;;;1.10;99.90;;;;;;5037101;28;20066;-57
2022/03/06 07:05:35;;;;;;;4.65;3.80;;;1.10;99.90;;;;;;5037507;28;20056;-58
2022/03/06 07:08:01;;;;;;;6.68;3.28;;;1.10;99.90;;;;;;5054993;28;20051;-58
2022/03/06 07:10:26;;;;;;;5.32;3.53;;;1.20;99.90;;;;;;5055225;28;20107;-58
2022/03/06 07:12:55;;;;;;;4.55;3.28;;;1.20;99.90;;;;;;5054857;28;20040;-57
2022/03/06 07:15:28;;;;;;;3.00;2.75;;;1.30;99.90;;;;;;5054387;28;20802;-58
2022/03/06 07:18:00;;;;;;;5.15;4.38;;;1.30;99.90;;;;;;5054668;28;20059;-58
2022/03/06 07:20:26;;;;;;;6.10;3.65;;;1.40;99.90;;;;;;5055142;28;20133;-60
2022/03/06 07:22:52;;;;;;;6.88;3.70;;;1.40;99.90;;;;;;5054461;28;20052;-59
2022/03/06 07:25:19;;;;;;;5.35;3.58;;;1.50;99.90;;;;;;5056771;28;20052;-58
2022/03/06 07:27:44;;;;;;;6.25;4.15;;;1.50;99.90;;;;;;5039217;28;20040;-58
2022/03/06 07:30:10;;;;;;;5.97;3.47;;;1.50;99.90;;;;;;5045276;28;20037;-58
2022/03/06 07:32:43;;;;;;;5.28;3.25;;;1.50;99.90;;;;;;5048659;28;20068;-58
2022/03/06 07:35:10;;;;;;;8.13;4.22;;;1.60;99.90;;;;;;5041163;28;20056;-58
2022/03/06 07:37:36;;;;;;;5.45;4.40;;;1.20;99.90;;;;;;5037800;28;20151;-59
2022/03/06 07:40:02;;;;;;;4.10;2.95;;;2.50;99.90;;;;;;5045052;28;20044;-59
2022/03/06 07:42:27;;;;;;;3.05;2.50;;;1.80;99.90;;;;;;5038170;28;20040;-59
2022/03/06 07:44:53;;;;;;;4.18;3.83;;;1.80;99.90;;;;;;5040838;28;20049;-59
2022/03/06 07:47:18;;;;;;;4.72;3.08;;;1.80;99.90;;;;;;5038166;28;20076;-59
2022/03/06 07:49:44;;;;;;;4.30;3.45;;;1.90;99.90;;;;;;5022375;28;20050;-59
2022/03/06 07:52:09;;;;;;;2.85;2.65;;;2.00;99.90;;;;;;5034920;28;20044;-58
2022/03/06 07:54:35;;;;;;;3.55;2.88;;;2.00;99.90;;;;;;5037575;28;20187;-58
2022/03/06 07:57:00;;;;;;;3.30;2.90;;;2.00;99.90;;;;;;5035893;28;20084;-58
2022/03/06 07:59:28;;;;;;;3.08;2.70;;;2.10;99.90;;;;;;5017802;28;20041;-58
2022/03/06 08:01:54;;;;;;;9.40;3.85;;;2.10;99.90;;;;;;5035675;28;20052;-59
2022/03/06 08:04:19;;;;;;;2.80;2.60;;;2.20;99.90;;;;;;5035448;28;21052;-58
2022/03/06 08:06:46;;;;;;;3.15;2.60;;;2.20;99.90;;;;;;5035877;28;20606;-59
2022/03/06 08:09:12;;;;;;;4.10;2.75;;;2.30;99.90;;;;;;5018177;28;20075;-59
2022/03/06 08:11:37;;;;;;;3.92;3.47;;;2.40;99.90;;;;;;5035404;28;20503;-58
2022/03/06 08:14:03;;;;;;;4.68;3.00;;;2.40;99.90;;;;;;5023596;28;20711;-58
2022/03/06 08:16:28;;;;;;;3.20;2.38;;;2.50;99.90;;;;;;5023876;28;20131;-58
2022/03/06 08:18:54;;;;;;;3.55;2.90;;;2.60;99.90;;;;;;5043222;28;20052;-58
2022/03/06 08:21:19;;;;;;;2.85;2.65;;;2.70;99.90;;;;;;5049804;28;20041;-58
2022/03/06 08:23:45;;;;;;;3.58;2.63;;;2.70;99.90;;;;;;5043422;28;20072;-59
2022/03/06 08:26:11;;;;;;;2.60;2.40;;;2.80;99.90;;;;;;5037914;28;20037;-59
2022/03/06 08:28:39;;;;;;;4.82;2.65;;;2.90;99.90;;;;;;5037838;28;20710;-58
2022/03/06 08:31:05;;;;;;;5.30;2.92;;;3.00;99.90;;;;;;5040609;28;20668;-58
2022/03/06 08:33:30;;;;;;;3.65;2.60;;;3.10;99.90;;;;;;5019231;28;20049;-58
2022/03/06 08:35:56;;;;;;;4.78;2.67;;;3.20;99.90;;;;;;5038051;28;20138;-58
2022/03/06 08:38:21;;;;;;;2.45;2.25;;;3.30;99.90;;;;;;5034529;28;20064;-58
2022/03/06 08:40:47;;;;;;;4.85;2.65;;;3.50;99.90;;;;;;5033418;28;20582;-58
2022/03/06 08:43:12;;;;;;;1.63;1.52;;;3.60;99.90;;;;;;5033611;28;20694;-58
2022/03/06 08:45:38;;;;;;;3.60;1.98;;;3.80;99.90;;;;;;5032960;28;20417;-58
2022/03/06 08:48:04;;;;;;;3.45;1.98;;;4.00;99.90;;;;;;5053648;28;20040;-58
2022/03/06 08:50:29;;;;;;;3.28;2.47;;;4.10;99.90;;;;;;5044244;28;20045;-58
2022/03/06 08:52:55;;;;;;;3.47;2.53;;;4.20;99.90;;;;;;5041621;28;20091;-58
2022/03/06 08:55:20;;;;;;;3.78;2.20;;;4.30;99.90;;;;;;5040346;28;20123;-58
2022/03/06 08:57:46;;;;;;;3.28;2.10;;;4.30;99.90;;;;;;5036894;28;20053;-58
2022/03/06 09:00:12;;;;;;;3.10;2.22;;;4.60;99.90;;;;;;5040668;28;20048;-58
2022/03/06 09:02:37;;;;;;;3.85;2.30;;;4.60;99.90;;;;;;5035635;28;20037;-58
2022/03/06 09:05:03;;;;;;;5.88;2.45;;;4.70;99.90;;;;;;5039994;28;20048;-59
2022/03/06 09:07:29;;;;;;;2.95;2.65;;;5.00;99.90;;;;;;5038832;28;20048;-58
2022/03/06 09:09:54;;;;;;;3.63;2.67;;;5.00;99.90;;;;;;5049045;28;20118;-58
2022/03/06 09:12:21;;;;;;;2.78;2.15;;;5.00;99.90;;;;;;5024089;28;20041;-59
2022/03/06 09:14:46;;;;;;;2.22;2.03;;;5.00;99.90;;;;;;5039928;28;20048;-58
2022/03/06 09:17:12;;;;;;;3.42;2.55;;;5.20;99.90;;;;;;5042530;28;20033;-59
2022/03/06 09:19:38;;;;;;;3.28;2.25;;;5.50;99.50;;;;;;5041924;28;20056;-62
2022/03/06 09:22:04;;;;;;;3.20;2.60;;;6.30;97.40;;;;;;5046152;28;20563;-59
2022/03/06 09:24:31;;;;;;;4.60;1.88;;;7.30;97.70;;;;;;5039138;28;20082;-59
2022/03/06 09:27:06;;;;;;;2.98;2.34;;;8.40;96.70;;;;;;5030514;28;10000847;-59
2022/03/06 09:29:32;;;;;;;3.53;2.65;;;8.90;93.70;;;;;;4695866;28;10000574;-59
2022/03/06 09:31:57;;;;;;;3.10;2.60;;;9.30;87.70;;;;;;5038029;28;20049;-59
2022/03/06 09:34:25;;;;;;;3.78;2.47;;;9.90;91.70;;;;;;5017525;28;20041;-58
2022/03/06 09:36:51;;;;;;;2.88;2.28;;;9.50;86.50;;;;;;5023444;28;20550;-59
2022/03/06 09:39:17;;;;;;;3.00;2.13;;;9.90;88.20;;;;;;5042839;28;20033;-58
2022/03/06 09:41:43;;;;;;;4.38;2.70;;;9.50;81.00;;;;;;5039740;28;20472;-58
2022/03/06 09:44:11;;;;;;;2.97;2.22;;;8.90;77.90;;;;;;5021084;28;20052;-59
2022/03/06 09:46:38;;;;;;;2.63;2.42;;;8.70;78.80;;;;;;5019060;28;20538;-59
2022/03/06 09:49:05;;;;;;;3.75;2.20;;;8.40;83.20;;;;;;5036630;28;20148;-58
2022/03/06 09:51:40;;;;;;;3.25;3.03;;;8.60;88.20;;;;;;5016617;28;20059;-58
2022/03/06 09:54:08;;;;;;;2.97;2.42;;;8.50;85.00;;;;;;5041594;28;20045;-58
2022/03/06 09:56:34;;;;;;;3.13;2.20;;;8.90;87.80;;;;;;5019433;28;20049;-59
2022/03/06 09:59:00;;;;;;;3.95;2.33;;;8.90;82.90;;;;;;5045906;28;20037;-58
2022/03/06 10:01:25;;;;;;;3.72;2.60;;;9.30;80.20;;;;;;5038803;28;20052;-59
2022/03/06 10:03:51;;;;;;;2.70;2.30;;;9.60;86.80;;;;;;5019423;28;20049;-59
2022/03/06 10:06:16;;;;;;;3.10;2.80;;;9.40;78.20;;;;;;5039576;28;20064;-59
2022/03/06 10:08:42;;;;;;;4.07;2.80;;;9.00;84.10;;;;;;5017798;28;20047;-58
2022/03/06 10:11:10;;;;;;;3.53;2.70;;;9.20;87.00;;;;;;5041041;28;20040;-58
2022/03/06 10:13:38;;;;;;;3.33;3.13;;;9.00;84.80;;;;;;5037121;28;20036;-59
2022/03/06 10:16:13;;;;;;;3.33;2.75;;;8.60;80.80;;;;;;5039635;28;20628;-59
2022/03/06 10:18:40;;;;;;;3.15;2.85;;;8.90;80.80;;;;;;5041101;28;20832;-59
2022/03/06 10:21:09;;;;;;;3.80;2.28;;;8.90;84.10;;;;;;5040038;28;20140;-59
2022/03/06 10:23:35;;;;;;;3.95;2.85;;;9.10;78.90;;;;;;4692576;28;10000312;-59
2022/03/06 10:26:15;;;;;;;4.03;2.72;;;10.10;84.00;;;;;;5038265;28;20048;-59
2022/03/06 10:28:56;;;;;;;5.13;3.25;;;9.80;79.40;;;;;;5015916;28;20056;-59
2022/03/06 10:31:23;;;;;;;3.72;3.20;;;10.20;82.20;;;;;;5019754;28;20118;-59
2022/03/06 10:33:56;;;;;;;2.85;2.53;;;10.80;78.00;;;;;;5044577;28;20049;-59
2022/03/06 10:36:44;;;;;;;2.70;2.50;;;11.30;78.50;;;;;;5035938;28;20056;-59
2022/03/06 10:39:18;;;;;;;2.90;2.63;;;12.00;77.80;;;;;;4705192;28;10000223;-59
2022/03/06 10:41:47;;;;;;;4.03;2.63;;;11.40;72.20;;;;;;5054507;28;20078;-58
2022/03/06 10:44:13;;;;;;;3.90;2.50;;;11.40;74.50;;;;;;5040092;28;20047;-59
2022/03/06 10:46:41;;;;;;;4.80;2.70;;;11.90;73.10;;;;;;5020080;28;20056;-59
2022/03/06 10:49:08;;;;;;;3.80;2.50;;;11.00;72.20;;;;;;5038804;28;20055;-59
2022/03/06 10:51:52;;;;;;;4.22;2.95;;;10.90;75.10;;;;;;5042397;28;20069;-60
2022/03/06 10:54:18;;;;;;;;;;;9.50;73.40;;;;;;5042856;28;20044;-59
2022/03/06 10:56:50;;;;;;;2.80;2.60;;;8.40;78.90;;;;;;5023112;28;19921;-59
2022/03/06 10:59:21;;;;;;;3.92;2.60;;;7.60;87.60;;;;;;5041358;28;20053;-59
2022/03/06 11:01:50;;;;;;;3.40;2.85;;;6.80;91.80;;;;;;5038661;28;20640;-59
2022/03/06 11:04:20;;;;;;;4.43;2.67;;;6.30;92.00;;;;;;5038071;28;20040;-59
2022/03/06 11:06:49;;;;;;;5.25;3.10;;;6.00;92.40;;;;;;5026430;28;20686;-58
2022/03/06 11:09:17;;;;;;;4.00;2.70;;;5.90;93.50;;;;;;5044868;28;20099;-58
2022/03/06 11:11:46;;;;;;;4.50;3.78;;;6.00;93.90;;;;;;5028334;28;20135;-58
2022/03/06 11:14:12;;;;;;;5.50;3.88;;;6.00;94.00;;;;;;5033195;28;20060;-58
2022/03/06 11:16:40;;;;;;;3.90;3.53;;;5.80;93.70;;;;;;5033309;28;20052;-58
2022/03/06 11:19:07;;;;;;;3.85;2.95;;;5.50;94.00;;;;;;5041615;28;20053;-58
2022/03/06 11:21:38;;;;;;;3.53;3.22;;;5.40;95.00;;;;;;5038666;28;20193;-58
2022/03/06 11:24:11;;;;;;;3.88;3.15;;;5.50;95.90;;;;;;5035502;28;20532;-58
2022/03/06 11:26:48;;;;;;;3.90;3.15;;;5.50;96.10;;;;;;5047642;28;20733;-58
2022/03/06 11:29:49;;;;;;;3.63;2.97;;;5.90;95.20;;;;;;5035321;28;20049;-58
2022/03/06 11:32:23;;;;;;;4.65;3.20;;;5.50;95.90;;;;;;5041605;28;20096;-58
2022/03/06 11:34:53;;;;;;;5.15;3.53;;;5.70;96.20;;;;;;5048904;28;20066;-58
2022/03/06 11:37:19;;;;;;;9.80;3.72;;;5.80;95.30;;;;;;5040931;28;20491;-58
2022/03/06 11:39:46;;;;;;;4.15;3.28;;;5.80;95.10;;;;;;5039685;28;20041;-59
2022/03/06 11:42:50;;;;;;;3.17;2.83;;;5.90;95.50;;;;;;5037686;28;20037;-58
2022/03/06 11:45:46;;;;;;;5.20;3.53;;;6.00;95.60;;;;;;5048890;28;20047;-59
2022/03/06 11:48:31;;;;;;;3.40;3.15;;;6.00;96.30;;;;;;5049027;28;20040;-58
2022/03/06 11:51:18;;;;;;;3.42;3.05;;;6.00;95.10;;;;;;5045971;28;20048;-59
2022/03/06 11:54:09;;;;;;;4.63;3.85;;;6.00;95.40;;;;;;5036281;28;20107;-58
2022/03/06 11:56:35;;;;;;;5.20;3.53;;;5.90;96.00;;;;;;5031085;28;20822;-58
2022/03/06 11:59:06;;;;;;;5.15;3.80;;;6.00;96.30;;;;;;5042163;28;20044;-58
2022/03/06 12:01:37;;;;;;;3.22;2.75;;;5.90;96.10;;;;;;5037794;28;20044;-58
2022/03/06 12:04:10;;;;;;;3.85;3.45;;;5.90;96.60;;;;;;5055725;28;20525;-58
2022/03/06 12:06:40;;;;;;;4.40;3.05;;;6.20;96.50;;;;;;5055817;28;20079;-59
2022/03/06 12:09:17;;;;;;;3.53;2.78;;;6.20;95.80;;;;;;5036581;28;20056;-58
2022/03/06 12:11:44;;;;;;;3.10;2.70;;;6.50;95.30;;;;;;5024581;28;20049;-59
2022/03/06 12:14:14;;;;;;;3.63;3.25;;;6.30;93.80;;;;;;5034263;28;20076;-59
2022/03/06 12:17:02;;;;;;;4.95;3.17;;;6.40;94.60;;;;;;5034912;28;20092;-58
2022/03/06 12:19:32;;;;;;;6.60;2.95;;;6.50;95.50;;;;;;5035182;28;20640;-59
2022/03/06 12:22:16;;;;;;;2.95;2.75;;;6.40;95.20;;;;;;5034907;28;20053;-59
2022/03/06 12:24:44;;;;;;;4.18;3.75;;;6.30;96.60;;;;;;5017436;28;20566;-58
2022/03/06 12:27:20;;;;;;;4.95;3.15;;;6.40;95.90;;;;;;5033985;28;20126;-59
2022/03/06 12:29:45;;;;;;;4.40;2.75;;;6.20;95.40;;;;;;5034184;28;20226;-58
2022/03/06 12:32:27;;;;;;;5.07;3.28;;;6.40;96.30;;;;;;5032944;28;20056;-58
2022/03/06 12:35:06;;;;;;;4.50;3.10;;;6.50;96.00;;;;;;5033373;28;20083;-59
2022/03/06 12:37:38;;;;;;;3.83;2.63;;;6.50;96.60;;;;;;5033730;28;20107;-59
2022/03/06 12:40:10;;;;;;;4.13;3.08;;;6.40;95.60;;;;;;5034469;28;20060;-59
2022/03/06 12:42:37;;;;;;;6.38;3.15;;;6.40;95.50;;;;;;5040721;28;20044;-58
2022/03/06 12:45:15;;;;;;;5.13;2.72;;;6.50;95.90;;;;;;5035369;28;20125;-58
2022/03/06 12:47:42;;;;;;;4.22;3.13;;;6.40;96.60;;;;;;5054820;28;20454;-59
2022/03/06 12:50:13;;;;;;;5.30;3.05;;;6.40;96.60;;;;;;5055163;28;20155;-59
2022/03/06 12:52:38;;;;;;;4.10;3.30;;;6.40;97.10;;;;;;5054854;28;20123;-58
2022/03/06 12:55:07;;;;;;;2.80;2.60;;;6.50;97.60;;;;;;5036634;28;20054;-58
2022/03/06 12:57:38;;;;;;;3.35;3.05;;;6.50;95.90;;;;;;5055086;28;20067;-58